Sioux Gateway Col. Bud Day Field
KSUX : rendu visible

Aérodrome :











RETROUVEZ-NOUS SUR...

 
LOGIN :

S'inscrire | Disclaimer

   EN    FR    IT 

 









Légende :    VFR   VFR Marginal   IFR   IFR Intensif   IFR Très Intensif
Visi : 
Plafond : 
>= 8 km
>= 3000ft
5 à 8 km
1000 à 3000 ft
1500m à 5 km
500 à 1000 ft
800 à 1500m
200 à 500 ft
< 800m
< 200 ft
Symboles :   Orages  Brouillard  Fortes neiges  Fortes précipitations  Vent > 20 kt






- Altitude de l'aérodrome : 1098 ft
- Code IATA : SUX


KSUX - Sioux Gateway Col. Bud Day Field

DERNIER METAR :
  • 281152Z 07011G18KT 10SM OVC007 08/06 A2958 RMK AO2 SLP022 60005 70009 T00780061 10083 20078 58006

METARs EXPIRÉS :
  • 281052Z AUTO 07012KT 10SM OVC008 08/07 A2960 RMK AO2 RAE0955B24E50 SLP028 P0001 T00780067
  • 280952Z AUTO 04008KT 10SM -RA OVC007 08/07 A2961 RMK AO2 PK WND 08028/0908 WSHFT 0902 SLP032 P0003 T00780067

TAF KSUX
Valide du 28 à 12h jusqu'au 29 à 12h UTC


281120Z 2812/2912 06012KT P6SM OVC008
FM281400 03015G25KT 3SM -RA VCTS OVC005CB
FM281800 01021G30KT 3SM -RA BR OVC006
FM282100 35026G39KT 4SM -RA BR OVC004
FM290100 35030G45KT 4SM RA OVC010
FM290500 32027G36KT P6SM OVC015



MET'MAP, la Météo Aéronautique d'un coup d'oeil ! - Copyright ORBIFLY Décembre 2007 - Disclaimer

ORBIFLY MET'MAP TEAM :

Programmation & Développement : Alexandra Zaïnal
Sur une idée originale de : Baudouin d'Aumeries
Assistance à la programmation : Marc-Olivier Méhu
Soutien technique & logistique : Manuel Goepfert

Contact : metmap@orbifly.com




SOURCES & CREDITS :

   NOAA       Earth
Advisory